Time;durP1;ratioP1;P1;durP2;ratioP2;P2;SDS_P1;SDS_P2;PMS_P1;PMS_P2;Temp;Humidity;BMP_temperature;BMP_pressure;BME280_temperature;BME280_humidity;BME280_pressure;Samples;Min_cycle;Max_cycle;Signal;HPM_P1;HPM_P2
2022/06/09 10:56:13;;;;;;;;;;;;;;;;;;5026101;28;20118;-67
2022/06/09 10:58:38;;;;;;;;;;;;;;;;;;5027869;28;20007;-65
2022/06/09 11:01:03;;;;;;;;;;;;;;;;;;5027656;28;20359;-65
2022/06/09 11:03:28;;;;;;;;;;;;;;;;;;5028015;28;19913;-65
2022/06/09 11:05:53;;;;;;;;;;;;;;;;;;5051312;28;19909;-65
2022/06/09 11:08:18;;;;;;;;;;;;;;;;;;5041650;28;19928;-64
2022/06/09 11:13:53;;;;;;;;;;;;;;;;;;5060594;28;19986;-71
2022/06/09 11:16:18;;;;;;;;;;;;;;;;;;5035471;28;138942;-67
2022/06/09 11:18:43;;;;;;;;;;;;;;;;;;5022713;28;20016;-68
2022/06/09 11:21:08;;;;;;;;;;;;;;;;;;5022015;28;19909;-66
2022/06/09 11:23:33;;;;;;;;;;;;;;;;;;5016474;28;19940;-68
2022/06/09 11:25:58;;;;;;;;;;;;;;;;;;5009560;28;19917;-67
2022/06/09 11:28:23;;;;;;;;;;;;;;;;;;5016835;28;20429;-65
2022/06/09 11:30:48;;;;;;;;;;;;;;;;;;5011140;28;19917;-67
2022/06/09 11:33:14;;;;;;;;;;;;;;;;;;5018436;28;20028;-65
2022/06/09 11:35:39;;;;;;;;;;;;;;;;;;5017972;28;19932;-67
2022/06/09 11:38:04;;;;;;;;;;;;;;;;;;5024554;28;20012;-66
2022/06/09 11:40:29;;;;;;;;;;;;;;;;;;5019639;28;19989;-66
2022/06/09 11:42:54;;;;;;;;;;;;;;;;;;5016383;28;19924;-67
2022/06/09 11:45:19;;;;;;;;;;;;;;;;;;5008246;28;20333;-67
2022/06/09 11:47:44;;;;;;;;;;;;;;;;;;5007213;28;20004;-68
2022/06/09 11:50:09;;;;;;;;;;;;;;;;;;5016897;28;19916;-67
2022/06/09 11:52:34;;;;;;;;;;;;;;;;;;5011819;28;20299;-68
2022/06/09 11:55:00;;;;;;;;;;;;;;;;;;5016949;28;19909;-69
2022/06/09 11:57:26;;;;;;;;;;;;;;;;;;5016510;28;19917;-70
2022/06/09 11:59:51;;;;;;;;;;;;;;;;;;5012766;28;20054;-68
2022/06/09 12:02:16;;;;;;;;;;;;;;;;;;5016875;28;20019;-66
2022/06/09 12:04:41;;;;;;;;;;;;;;;;;;5017505;28;19999;-71
2022/06/09 12:09:19;;;;;;;;;;;;;;;;;;6376231;19;19912;-70
2022/06/09 12:11:44;;;;;;;;;;;;;;;;;;6365689;19;19930;-68
2022/06/09 12:14:12;;;;;;;;;;;;;;;;;;6367814;19;19924;-74
2022/06/09 12:16:37;;;;;;;;;;;;;;;;;;6364839;19;19908;-71
2022/06/09 12:19:03;;;;;;;;;;;;;;;;;;6366607;19;19918;-68
2022/06/09 12:21:28;;;;;;;;;;;;;;;;;;6372173;19;19919;-69
2022/06/09 12:23:53;;;;;;;;;;;;;;;;;;6366423;19;19919;-68
2022/06/09 12:26:19;;;;;;;;;;;;;;;;;;6370011;19;19934;-67
2022/06/09 12:28:44;;;;;;;;;;;;;;;;;;6366440;19;19919;-67
2022/06/09 12:31:09;;;;;;;;;;;;;;;;;;6366048;19;20857;-68
2022/06/09 12:33:35;;;;;;;;;;;;;;;;;;6367323;19;19997;-65
2022/06/09 12:36:02;;;;;;;;;;;;;;;;;;6364608;19;19963;-67
2022/06/09 12:38:27;;;;;;;;;;;;;;;;;;6359165;19;19936;-67
2022/06/09 12:40:53;;;;;;;;;;;;;;;;;;6367391;19;19929;-66
2022/06/09 12:43:18;;;;;;;;;;;;;;;;;;6365821;19;19932;-66
2022/06/09 12:45:43;;;;;;;;;;;;;;;;;;6375303;19;19933;-68
2022/06/09 12:48:08;;;;;;;;;;;;;;;;;;6365907;19;19922;-68
2022/06/09 12:50:33;;;;;;;;;;;;;;;;;;6366587;19;19953;-68
2022/06/09 12:52:58;;;;;;;;;;;;;;;;;;6373178;19;19912;-70
2022/06/09 12:55:23;;;;;;;;;;;;;;;;;;6363848;19;20310;-67
2022/06/09 12:57:48;;;;;;;;;;;;;;;;;;6371207;19;19931;-67
2022/06/09 13:00:14;;;;;;;;;;;;;;;;;;6368177;19;20334;-65
2022/06/09 13:02:39;;;;;;;;;;;;;;;;;;6365155;19;19931;-66
2022/06/09 13:05:04;;;;;;;;;;;;;;;;;;6372089;19;19942;-66
2022/06/09 13:07:29;;;;;;;;;;;;;;;;;;6365918;19;19908;-66
2022/06/09 13:09:54;;;;;;;;;;;;;;;;;;6365627;19;19926;-66
2022/06/09 13:13:02;;;;;;;;;;;;;;;;;;6375144;19;19940;-66
2022/06/09 13:15:07;;;;;;;;;;;;;;;;;;6360589;19;19915;-66
2022/06/09 13:17:32;;;;;;;;;;;;;;;;;;6365513;19;20765;-65
2022/06/09 13:19:57;;;;;;;;;;;;;;;;;;6345378;19;20210;-65
2022/06/09 13:22:22;;;;;;;;;;;;;;;;;;6348270;19;20125;-65
